Time;durP1;ratioP1;P1;durP2;ratioP2;P2;SDS_P1;SDS_P2;PMS_P1;PMS_P2;Temp;Humidity;BMP_temperature;BMP_pressure;BME280_temperature;BME280_humidity;BME280_pressure;Samples;Min_cycle;Max_cycle;Signal;HPM_P1;HPM_P2
2024/01/04 00:02:30;;;;;;;4.85;2.92;;;0.30;99.90;;;;;;5044967;28;20036;-84
2024/01/04 00:04:56;;;;;;;5.03;2.90;;;0.20;99.90;;;;;;5041796;28;20032;-83
2024/01/04 00:07:21;;;;;;;4.65;2.72;;;0.20;99.90;;;;;;5060576;28;20056;-84
2024/01/04 00:09:48;;;;;;;7.35;3.05;;;0.20;99.90;;;;;;5061606;28;20058;-84
2024/01/04 00:12:14;;;;;;;4.68;2.53;;;0.20;99.90;;;;;;5067087;28;20085;-84
2024/01/04 00:14:40;;;;;;;5.07;2.92;;;0.20;99.90;;;;;;5087002;28;20056;-84
2024/01/04 00:17:06;;;;;;;6.00;2.97;;;0.20;99.90;;;;;;5074788;28;20062;-84
2024/01/04 00:19:32;;;;;;;4.60;3.00;;;0.10;99.90;;;;;;5055882;28;20040;-84
2024/01/04 00:21:57;;;;;;;4.22;2.78;;;0.10;99.90;;;;;;5050637;28;20029;-84
2024/01/04 00:24:23;;;;;;;5.47;2.60;;;0.00;99.90;;;;;;5058257;28;20034;-84
2024/01/04 00:26:49;;;;;;;4.40;2.67;;;0.00;99.90;;;;;;5061364;28;20020;-84
2024/01/04 00:29:14;;;;;;;4.97;2.90;;;-0.10;99.90;;;;;;5061656;28;20027;-84
2024/01/04 00:31:41;;;;;;;5.18;2.47;;;0.00;99.90;;;;;;5042921;28;20086;-84
2024/01/04 00:34:07;;;;;;;3.35;2.30;;;0.00;99.90;;;;;;5043240;28;20060;-83
2024/01/04 00:36:33;;;;;;;4.32;2.20;;;0.00;99.90;;;;;;5076145;28;20098;-84
2024/01/04 00:38:59;;;;;;;3.97;1.98;;;0.00;99.90;;;;;;5073800;28;20028;-84
2024/01/04 00:41:25;;;;;;;3.53;2.35;;;0.00;99.90;;;;;;5058104;28;20039;-84
2024/01/04 00:43:51;;;;;;;4.93;2.80;;;0.00;99.90;;;;;;5051380;28;20438;-83
2024/01/04 00:46:16;;;;;;;3.33;2.22;;;0.00;99.90;;;;;;5043767;28;20035;-83
2024/01/04 00:48:42;;;;;;;4.40;2.40;;;0.00;99.90;;;;;;5084288;28;20021;-84
2024/01/04 00:51:08;;;;;;;3.70;2.22;;;-0.10;99.90;;;;;;5053270;28;20070;-83
2024/01/04 00:53:34;;;;;;;3.90;2.28;;;-0.10;99.90;;;;;;5072186;28;20392;-83
2024/01/04 00:56:00;;;;;;;5.40;2.55;;;-0.10;99.90;;;;;;5053544;28;20020;-83
2024/01/04 00:58:25;;;;;;;3.90;2.17;;;-0.20;99.90;;;;;;5041583;28;20138;-83
2024/01/04 01:00:51;;;;;;;4.95;2.80;;;-0.20;99.90;;;;;;5047119;28;20025;-83
2024/01/04 01:03:17;;;;;;;5.47;2.65;;;-0.20;99.90;;;;;;5052951;28;20112;-83
2024/01/04 01:05:42;;;;;;;4.80;2.60;;;-0.20;99.90;;;;;;5052635;28;20365;-83
2024/01/04 01:08:08;;;;;;;4.93;2.53;;;-0.20;99.90;;;;;;5061050;28;20021;-84
2024/01/04 01:10:34;;;;;;;4.22;2.38;;;-0.20;99.90;;;;;;5027747;28;20028;-83
2024/01/04 01:13:01;;;;;;;4.10;2.25;;;-0.30;99.90;;;;;;5036575;28;20028;-84
2024/01/04 01:15:27;;;;;;;5.50;2.60;;;-0.30;99.90;;;;;;5073270;28;20083;-84
2024/01/04 01:17:53;;;;;;;6.50;2.97;;;-0.40;99.90;;;;;;5064265;28;20039;-84
2024/01/04 01:20:19;;;;;;;6.63;2.80;;;-0.40;99.90;;;;;;5075869;28;20033;-83
2024/01/04 01:22:44;;;;;;;7.18;2.90;;;-0.40;99.90;;;;;;5037853;28;20024;-84
2024/01/04 01:25:10;;;;;;;6.55;2.85;;;-0.40;99.90;;;;;;5053164;28;20029;-84
2024/01/04 01:27:37;;;;;;;3.88;2.42;;;-0.40;99.90;;;;;;5073894;28;20051;-83
2024/01/04 01:30:03;;;;;;;4.53;2.40;;;-0.40;99.90;;;;;;5077927;28;20026;-84
2024/01/04 01:32:28;;;;;;;4.63;2.40;;;-0.40;99.90;;;;;;5062877;28;20055;-84
2024/01/04 01:34:54;;;;;;;3.67;2.10;;;-0.40;99.90;;;;;;5063094;28;20028;-83
2024/01/04 01:37:21;;;;;;;3.45;1.90;;;-0.50;99.90;;;;;;5043785;28;20050;-83
2024/01/04 01:39:46;;;;;;;3.05;1.70;;;-0.50;99.90;;;;;;5096213;28;20028;-84
2024/01/04 01:42:12;;;;;;;3.78;2.00;;;-0.50;99.90;;;;;;5067293;28;20495;-83
2024/01/04 01:44:38;;;;;;;2.78;1.60;;;-0.50;99.90;;;;;;5058025;28;20032;-83
2024/01/04 01:47:04;;;;;;;4.55;2.50;;;-0.50;99.90;;;;;;5056068;28;20031;-83
2024/01/04 01:49:31;;;;;;;4.85;2.40;;;-0.50;99.90;;;;;;5056672;28;20035;-83
2024/01/04 01:51:57;;;;;;;4.43;2.53;;;-0.60;99.90;;;;;;5064030;28;20439;-83
2024/01/04 01:54:23;;;;;;;4.65;2.53;;;-0.60;99.90;;;;;;5058456;28;20123;-83
2024/01/04 01:56:49;;;;;;;3.25;2.20;;;-0.60;99.90;;;;;;5074579;28;20071;-83
2024/01/04 01:59:15;;;;;;;5.95;3.47;;;-0.60;99.90;;;;;;5077865;28;20024;-83
2024/01/04 02:01:41;;;;;;;6.05;2.83;;;-0.60;99.90;;;;;;5062981;28;20032;-83
2024/01/04 02:04:06;;;;;;;4.32;2.10;;;-0.60;99.90;;;;;;5043821;28;20035;-83
2024/01/04 02:06:32;;;;;;;4.43;2.00;;;-0.60;99.90;;;;;;5074027;28;20032;-83
2024/01/04 02:08:58;;;;;;;5.20;2.42;;;-0.50;99.90;;;;;;5079408;28;20017;-83
2024/01/04 02:11:23;;;;;;;3.90;2.35;;;-0.50;99.90;;;;;;5074819;28;20024;-83
2024/01/04 02:13:49;;;;;;;11.60;5.57;;;-0.50;99.90;;;;;;5063309;28;20031;-83
2024/01/04 02:16:15;;;;;;;10.13;5.05;;;-0.60;99.90;;;;;;5055157;28;20548;-83
2024/01/04 02:18:41;;;;;;;13.52;5.95;;;-0.60;99.90;;;;;;5096580;28;20038;-83
2024/01/04 02:21:09;;;;;;;7.50;4.35;;;-0.70;99.90;;;;;;5062087;28;20093;-83
2024/01/04 02:23:35;;;;;;;8.57;3.70;;;-0.70;99.90;;;;;;5075867;28;20032;-83
2024/01/04 02:26:01;;;;;;;9.82;4.85;;;-0.70;99.90;;;;;;5059284;28;20542;-83
2024/01/04 02:28:27;;;;;;;8.43;3.72;;;-0.70;99.90;;;;;;5049900;28;20030;-83
2024/01/04 02:30:53;;;;;;;5.57;3.25;;;-0.70;99.90;;;;;;5078895;28;20120;-83
2024/01/04 02:33:19;;;;;;;5.63;3.10;;;-0.60;99.90;;;;;;5061986;28;20052;-83
2024/01/04 02:35:44;;;;;;;7.10;3.03;;;-0.60;99.90;;;;;;5037904;28;20039;-83
2024/01/04 02:38:10;;;;;;;5.07;2.50;;;-0.60;99.90;;;;;;5069691;28;20095;-83
2024/01/04 02:40:36;;;;;;;4.53;2.50;;;-0.70;99.90;;;;;;5062119;28;20024;-83
2024/01/04 02:43:02;;;;;;;6.13;2.72;;;-0.60;99.90;;;;;;5087094;28;20370;-83
2024/01/04 02:45:27;;;;;;;4.35;2.30;;;-0.60;99.90;;;;;;5053902;28;20025;-83
2024/01/04 02:47:53;;;;;;;5.90;3.20;;;-0.60;99.90;;;;;;5061549;28;20024;-83
2024/01/04 02:50:19;;;;;;;6.05;3.30;;;-0.60;99.90;;;;;;5063519;28;20024;-83
2024/01/04 02:52:45;;;;;;;6.68;3.13;;;-0.70;99.90;;;;;;5060304;28;20037;-83
2024/01/04 02:55:10;;;;;;;10.70;5.53;;;-0.70;99.90;;;;;;5053398;28;20469;-83
2024/01/04 02:57:36;;;;;;;9.70;5.22;;;-0.70;99.90;;;;;;5074375;28;20048;-83
2024/01/04 03:00:02;;;;;;;7.68;4.22;;;-0.70;99.90;;;;;;5061769;28;20028;-83
2024/01/04 03:02:28;;;;;;;6.95;3.38;;;-0.70;99.90;;;;;;5043481;28;20031;-83
2024/01/04 03:04:53;;;;;;;4.55;2.50;;;-0.80;99.90;;;;;;5055178;28;20025;-83
2024/01/04 03:07:19;;;;;;;4.47;2.33;;;-0.80;99.90;;;;;;5041545;28;20112;-83
2024/01/04 03:09:45;;;;;;;4.60;2.50;;;-0.80;99.90;;;;;;5060255;28;20066;-83
2024/01/04 03:12:13;;;;;;;7.85;3.55;;;-0.80;99.90;;;;;;5033529;28;20500;-83
2024/01/04 03:14:38;;;;;;;9.18;3.95;;;-0.80;99.90;;;;;;5046189;28;20032;-83
2024/01/04 03:17:04;;;;;;;9.77;4.30;;;-0.80;99.90;;;;;;5055092;28;20035;-83
2024/01/04 03:19:30;;;;;;;8.38;3.63;;;-0.80;99.90;;;;;;5029520;28;20024;-83
2024/01/04 03:21:55;;;;;;;8.10;3.65;;;-0.80;99.90;;;;;;5059300;28;20052;-83
2024/01/04 03:24:21;;;;;;;5.97;3.10;;;-0.80;99.90;;;;;;5055483;28;20031;-83
2024/01/04 03:26:47;;;;;;;4.13;2.55;;;-0.80;99.90;;;;;;5103716;28;20012;-83
2024/01/04 03:29:12;;;;;;;4.55;2.30;;;-0.80;99.90;;;;;;5079201;28;20032;-83
2024/01/04 03:31:38;;;;;;;3.78;2.40;;;-0.80;99.90;;;;;;5076542;28;20107;-83
2024/01/04 03:34:04;;;;;;;4.72;2.80;;;-0.90;99.90;;;;;;5060334;28;20025;-83
2024/01/04 03:36:29;;;;;;;6.22;2.72;;;-0.90;99.90;;;;;;5048346;28;20029;-83
2024/01/04 03:38:55;;;;;;;5.88;2.97;;;-0.90;99.90;;;;;;5064273;28;20468;-82
2024/01/04 03:41:21;;;;;;;4.28;2.80;;;-0.90;99.90;;;;;;5061658;28;20036;-83
2024/01/04 03:43:47;;;;;;;4.40;2.40;;;-0.90;99.90;;;;;;5055774;28;20036;-83
2024/01/04 03:46:13;;;;;;;5.25;2.63;;;-1.00;99.90;;;;;;5072523;28;20028;-83
2024/01/04 03:48:39;;;;;;;4.88;2.65;;;-1.00;99.90;;;;;;5038977;28;20020;-83
2024/01/04 03:51:05;;;;;;;5.60;2.70;;;-1.00;99.90;;;;;;5092050;28;20107;-83
2024/01/04 03:53:30;;;;;;;4.53;2.60;;;-1.00;99.90;;;;;;5076496;28;20052;-83
2024/01/04 03:55:56;;;;;;;3.53;2.20;;;-1.00;99.90;;;;;;5060908;28;20082;-83
2024/01/04 03:58:22;;;;;;;3.35;2.15;;;-1.00;99.90;;;;;;5066050;28;20507;-83
2024/01/04 04:00:47;;;;;;;3.47;1.92;;;-1.00;99.90;;;;;;5066115;28;20024;-83
2024/01/04 04:03:18;;;;;;;4.53;2.35;;;-1.00;99.90;;;;;;5071275;28;20029;-83
2024/01/04 04:05:44;;;;;;;3.85;2.40;;;-1.00;99.90;;;;;;5073366;28;20013;-83
2024/01/04 04:08:10;;;;;;;5.38;2.60;;;-1.10;99.90;;;;;;5066139;28;20051;-83
2024/01/04 04:10:36;;;;;;;5.13;2.58;;;-1.10;99.90;;;;;;5043098;28;20032;-83
2024/01/04 04:13:01;;;;;;;5.15;2.15;;;-1.10;99.90;;;;;;5048483;28;20024;-83
2024/01/04 04:15:27;;;;;;;4.03;2.15;;;-1.00;99.90;;;;;;5073784;28;20048;-83
2024/01/04 04:17:55;;;;;;;2.60;1.70;;;-0.90;99.90;;;;;;5037262;28;20031;-83
2024/01/04 04:20:20;;;;;;;4.72;2.00;;;-0.90;99.90;;;;;;5045770;28;20024;-83
2024/01/04 04:22:46;;;;;;;5.40;1.90;;;-0.90;99.90;;;;;;5071968;28;20032;-83
2024/01/04 04:25:12;;;;;;;5.63;2.05;;;-0.80;99.90;;;;;;5046528;28;20029;-83
2024/01/04 04:27:38;;;;;;;4.22;2.15;;;-0.70;99.90;;;;;;5060118;28;20028;-83
2024/01/04 04:30:05;;;;;;;2.90;1.55;;;-0.70;99.90;;;;;;5050356;28;20033;-83
2024/01/04 04:32:31;;;;;;;2.90;1.63;;;-0.70;99.90;;;;;;5064388;28;20044;-83
2024/01/04 04:34:57;;;;;;;3.53;2.00;;;-0.60;99.90;;;;;;5065861;28;20431;-84
2024/01/04 04:37:22;;;;;;;3.53;1.70;;;-0.60;99.90;;;;;;5044427;28;20025;-83
2024/01/04 04:39:48;;;;;;;3.20;2.08;;;-0.60;99.90;;;;;;5061096;28;20033;-83
2024/01/04 04:42:14;;;;;;;5.15;2.70;;;-0.60;99.90;;;;;;5081675;28;20043;-84
2024/01/04 04:44:39;;;;;;;4.80;2.60;;;-0.50;99.90;;;;;;5076781;28;20033;-84
2024/01/04 04:47:05;;;;;;;4.00;2.38;;;-0.50;99.90;;;;;;5044848;28;20404;-85
2024/01/04 04:49:31;;;;;;;5.47;2.83;;;-0.50;99.90;;;;;;5071620;28;20052;-84
2024/01/04 04:51:57;;;;;;;7.20;3.17;;;-0.50;99.90;;;;;;5086686;28;20027;-84
2024/01/04 04:54:22;;;;;;;13.85;6.25;;;-0.60;99.90;;;;;;5084633;28;20027;-84
2024/01/04 04:56:48;;;;;;;10.65;5.13;;;-0.60;99.90;;;;;;5059823;28;20109;-84
2024/01/04 04:59:14;;;;;;;16.05;6.47;;;-0.60;99.90;;;;;;5057135;28;20050;-84
2024/01/04 05:01:40;;;;;;;9.50;4.85;;;-0.60;99.90;;;;;;5051039;28;20029;-84
2024/01/04 05:04:06;;;;;;;6.03;3.22;;;-0.60;99.90;;;;;;5060195;28;20493;-84
2024/01/04 05:06:31;;;;;;;4.28;2.40;;;-0.60;99.90;;;;;;5050208;28;20047;-84
2024/01/04 05:08:57;;;;;;;4.70;2.20;;;-0.50;99.90;;;;;;5032846;28;20392;-84
2024/01/04 05:11:23;;;;;;;2.90;1.75;;;-0.50;99.90;;;;;;5062818;28;20038;-84
2024/01/04 05:13:48;;;;;;;3.42;2.15;;;-0.40;99.90;;;;;;5063644;28;20059;-84
2024/01/04 05:16:14;;;;;;;3.25;1.88;;;-0.40;99.90;;;;;;5070679;28;20409;-84
2024/01/04 05:18:40;;;;;;;3.55;2.00;;;-0.40;99.90;;;;;;5063602;28;20051;-84
2024/01/04 05:21:05;;;;;;;3.78;1.83;;;-0.40;99.90;;;;;;5059738;28;20031;-84
2024/01/04 05:23:31;;;;;;;4.25;1.80;;;-0.30;99.90;;;;;;5046568;28;20126;-84
2024/01/04 05:25:57;;;;;;;3.55;1.92;;;-0.30;99.90;;;;;;5082393;28;20065;-84
2024/01/04 05:28:22;;;;;;;7.25;3.13;;;-0.30;99.90;;;;;;5064812;28;20051;-84
2024/01/04 05:30:48;;;;;;;6.20;4.63;;;-0.30;99.90;;;;;;5049476;28;20489;-84
2024/01/04 05:33:14;;;;;;;5.10;3.90;;;-0.20;99.90;;;;;;5058487;28;20028;-84
2024/01/04 05:35:39;;;;;;;7.22;4.50;;;-0.20;99.90;;;;;;5068964;28;20434;-84
2024/01/04 05:38:05;;;;;;;5.22;2.33;;;-0.10;99.90;;;;;;5043510;28;20040;-84
2024/01/04 05:40:31;;;;;;;3.85;2.58;;;0.00;99.90;;;;;;5062559;28;20110;-84
2024/01/04 05:42:58;;;;;;;7.90;4.70;;;0.00;99.90;;;;;;5098507;28;20024;-84
2024/01/04 05:45:24;;;;;;;9.15;4.63;;;0.10;99.90;;;;;;5100113;28;20426;-85
2024/01/04 05:47:50;;;;;;;6.10;3.58;;;0.10;99.90;;;;;;5118589;28;20028;-85
2024/01/04 05:50:15;;;;;;;7.18;3.80;;;0.10;99.90;;;;;;5066351;28;20020;-85
2024/01/04 05:52:41;;;;;;;10.60;6.32;;;0.10;99.90;;;;;;5099664;28;20039;-85
2024/01/04 05:55:07;;;;;;;8.77;5.35;;;0.10;99.90;;;;;;5082167;28;20036;-84
2024/01/04 05:57:34;;;;;;;6.20;3.08;;;0.00;99.90;;;;;;5082459;28;20124;-83
2024/01/04 05:59:59;;;;;;;11.10;5.20;;;0.00;99.90;;;;;;5099258;28;20032;-84
2024/01/04 06:02:27;;;;;;;8.98;4.85;;;0.00;99.90;;;;;;5074797;28;20362;-84
2024/01/04 06:04:56;;;;;;;9.30;4.80;;;0.00;99.90;;;;;;5064354;28;20025;-84
2024/01/04 06:07:22;;;;;;;10.02;4.70;;;0.00;99.90;;;;;;5043845;28;20020;-84
2024/01/04 06:09:48;;;;;;;8.60;4.53;;;0.00;99.90;;;;;;5076865;28;20073;-83
2024/01/04 06:12:14;;;;;;;7.63;5.03;;;0.00;99.90;;;;;;5050280;28;20021;-83
2024/01/04 06:14:40;;;;;;;7.18;4.20;;;0.00;99.90;;;;;;5054752;28;20033;-83
2024/01/04 06:17:07;;;;;;;9.10;4.97;;;0.00;99.90;;;;;;5044416;28;20084;-84
2024/01/04 06:19:34;;;;;;;7.20;3.78;;;0.00;99.90;;;;;;5035825;28;20077;-84
2024/01/04 06:21:59;;;;;;;4.80;2.60;;;0.00;99.90;;;;;;5065071;28;20403;-84
2024/01/04 06:24:25;;;;;;;4.45;2.13;;;0.00;99.90;;;;;;5024806;28;20040;-84
2024/01/04 06:26:52;;;;;;;5.63;2.72;;;0.00;99.90;;;;;;5041420;28;20524;-84
2024/01/04 06:29:18;;;;;;;4.07;1.88;;;0.00;99.90;;;;;;5041618;28;20031;-84
2024/01/04 06:31:44;;;;;;;4.97;2.35;;;0.00;99.90;;;;;;5066485;28;20035;-83
2024/01/04 06:34:10;;;;;;;5.82;3.33;;;0.00;99.90;;;;;;5062203;28;20035;-84
2024/01/04 06:36:36;;;;;;;7.90;3.80;;;0.10;99.90;;;;;;5066536;28;20032;-84
2024/01/04 06:39:02;;;;;;;5.13;2.63;;;0.10;99.90;;;;;;5028311;28;20037;-84
2024/01/04 06:41:29;;;;;;;5.53;2.95;;;0.20;99.90;;;;;;5039780;28;20028;-84
2024/01/04 06:43:56;;;;;;;6.88;3.47;;;0.20;99.90;;;;;;5063261;28;20062;-83
2024/01/04 06:46:22;;;;;;;6.63;4.32;;;0.20;99.90;;;;;;5058509;28;20029;-84
2024/01/04 06:48:47;;;;;;;7.60;4.80;;;0.20;99.90;;;;;;5045967;28;20016;-84
2024/01/04 06:51:13;;;;;;;8.98;5.00;;;0.20;99.90;;;;;;5059528;28;20111;-84
2024/01/04 06:53:39;;;;;;;7.97;4.82;;;0.20;99.90;;;;;;5076451;28;20044;-84
2024/01/04 06:56:05;;;;;;;12.23;8.27;;;0.20;99.90;;;;;;5059691;28;20043;-84
2024/01/04 06:58:30;;;;;;;10.52;6.95;;;0.20;99.90;;;;;;5076832;28;20326;-84
2024/01/04 07:00:56;;;;;;;13.07;6.28;;;0.20;99.90;;;;;;5041009;28;20024;-84
2024/01/04 07:03:22;;;;;;;11.82;7.22;;;0.20;99.90;;;;;;5039344;28;20397;-84
2024/01/04 07:05:49;;;;;;;6.85;3.70;;;0.20;99.90;;;;;;5023047;28;20046;-85
2024/01/04 07:08:14;;;;;;;5.90;3.22;;;0.20;99.90;;;;;;5041004;28;20025;-84
2024/01/04 07:10:40;;;;;;;6.68;3.92;;;0.20;99.90;;;;;;5074434;28;20502;-83
2024/01/04 07:13:09;;;;;;;5.13;3.33;;;0.20;99.90;;;;;;5089509;28;20503;-84
2024/01/04 07:15:34;;;;;;;6.47;3.67;;;0.20;99.90;;;;;;5056392;28;20036;-84
2024/01/04 07:18:00;;;;;;;8.15;4.05;;;0.30;99.90;;;;;;5036148;28;20036;-84
2024/01/04 07:20:26;;;;;;;7.03;3.55;;;0.30;99.90;;;;;;5075889;28;20032;-84
2024/01/04 07:22:53;;;;;;;7.78;4.00;;;0.30;99.90;;;;;;5075987;28;20028;-84
2024/01/04 07:25:19;;;;;;;6.90;4.10;;;0.40;99.90;;;;;;5076054;28;20102;-84
2024/01/04 07:27:45;;;;;;;6.82;3.58;;;0.40;99.90;;;;;;5059263;28;20024;-84
2024/01/04 07:30:11;;;;;;;8.90;4.70;;;0.40;99.90;;;;;;5055825;28;20104;-83
2024/01/04 07:32:36;;;;;;;14.00;7.72;;;0.40;99.90;;;;;;5078738;28;20032;-83
2024/01/04 07:35:03;;;;;;;10.05;6.70;;;0.40;99.90;;;;;;5059122;28;20027;-83
2024/01/04 07:37:28;;;;;;;14.43;7.13;;;0.40;99.90;;;;;;5093878;28;20496;-83
2024/01/04 07:39:54;;;;;;;9.50;4.40;;;0.40;99.90;;;;;;5059138;28;20028;-83
2024/01/04 07:42:20;;;;;;;10.85;4.57;;;0.50;99.90;;;;;;5094041;28;20024;-83
2024/01/04 07:44:46;;;;;;;6.78;4.00;;;0.50;99.90;;;;;;5059568;28;20411;-83
2024/01/04 07:47:12;;;;;;;8.48;4.95;;;0.50;99.90;;;;;;5094023;28;20021;-83
2024/01/04 07:49:37;;;;;;;19.38;9.88;;;0.50;99.90;;;;;;5093856;28;20511;-83
2024/01/04 07:52:03;;;;;;;16.17;8.65;;;0.50;99.90;;;;;;5042813;28;20074;-83
2024/01/04 07:54:29;;;;;;;14.77;7.00;;;0.50;99.90;;;;;;5042517;28;20035;-84
2024/01/04 07:56:55;;;;;;;13.43;5.47;;;0.50;99.90;;;;;;5093812;28;20423;-83
2024/01/04 07:59:22;;;;;;;13.40;5.93;;;0.50;99.90;;;;;;5038445;28;20073;-83
2024/01/04 08:01:49;;;;;;;7.70;3.97;;;0.60;99.90;;;;;;5055368;28;20063;-84
2024/01/04 08:04:15;;;;;;;7.38;3.70;;;0.60;99.90;;;;;;5051049;28;20032;-84
2024/01/04 08:06:40;;;;;;;5.60;3.10;;;0.60;99.90;;;;;;5078780;28;20035;-84
2024/01/04 08:09:07;;;;;;;6.13;3.45;;;0.70;99.90;;;;;;5061929;28;20395;-84
2024/01/04 08:11:32;;;;;;;5.55;3.30;;;0.70;99.90;;;;;;5056435;28;20021;-84
2024/01/04 08:13:58;;;;;;;7.85;2.78;;;0.70;99.90;;;;;;5062601;28;20398;-84
2024/01/04 08:16:24;;;;;;;7.25;3.58;;;0.80;99.90;;;;;;5062423;28;20427;-84
2024/01/04 08:18:50;;;;;;;7.10;4.88;;;0.80;99.90;;;;;;5086234;28;20024;-84
2024/01/04 08:21:16;;;;;;;6.78;3.75;;;0.90;99.90;;;;;;5079908;28;20077;-85
2024/01/04 08:23:42;;;;;;;5.72;3.33;;;1.00;99.90;;;;;;5070646;28;20034;-84
2024/01/04 08:26:08;;;;;;;6.65;4.10;;;1.00;99.90;;;;;;5099341;28;20026;-85
2024/01/04 08:28:34;;;;;;;7.18;3.40;;;1.10;99.90;;;;;;5082391;28;20043;-84
2024/01/04 08:30:59;;;;;;;6.20;3.47;;;1.10;99.90;;;;;;5117652;28;20105;-84
2024/01/04 08:33:25;;;;;;;5.78;3.20;;;1.10;99.90;;;;;;5082191;28;20030;-84
2024/01/04 08:35:51;;;;;;;7.57;3.20;;;1.10;99.90;;;;;;5082300;28;20036;-85
2024/01/04 08:38:16;;;;;;;7.30;4.10;;;1.10;99.90;;;;;;5071535;28;20033;-84
2024/01/04 08:40:42;;;;;;;5.95;3.58;;;1.20;99.90;;;;;;5032796;28;20484;-84
2024/01/04 08:43:08;;;;;;;7.03;3.25;;;1.20;99.90;;;;;;5068577;28;20024;-84
2024/01/04 08:45:34;;;;;;;9.52;5.30;;;1.30;99.90;;;;;;5058845;28;20105;-84
2024/01/04 08:48:00;;;;;;;8.82;5.03;;;1.40;99.90;;;;;;5076030;28;20024;-84
2024/01/04 08:50:25;;;;;;;8.18;4.68;;;1.40;99.90;;;;;;5076667;28;20104;-84
2024/01/04 08:52:51;;;;;;;9.02;5.72;;;1.50;99.90;;;;;;5075587;28;20124;-84
2024/01/04 08:55:19;;;;;;;8.98;4.75;;;1.60;99.90;;;;;;5058530;28;20078;-84
2024/01/04 08:57:46;;;;;;;7.45;4.15;;;1.60;99.90;;;;;;5057843;28;20034;-84
2024/01/04 09:00:12;;;;;;;8.90;3.90;;;1.60;99.90;;;;;;5076342;28;20103;-84
2024/01/04 09:02:38;;;;;;;9.30;5.25;;;1.70;99.90;;;;;;5058369;28;20025;-84
2024/01/04 09:05:04;;;;;;;9.02;4.50;;;1.70;99.90;;;;;;5098014;28;20011;-84
2024/01/04 09:07:30;;;;;;;11.35;7.53;;;1.70;99.90;;;;;;5093839;28;20111;-84
2024/01/04 09:09:56;;;;;;;12.95;8.20;;;1.70;99.90;;;;;;5060989;28;20052;-84
2024/01/04 09:12:21;;;;;;;20.00;13.23;;;1.70;99.90;;;;;;5056679;28;20025;-84
2024/01/04 09:14:47;;;;;;;19.45;11.75;;;1.80;99.90;;;;;;5078387;28;20036;-84
2024/01/04 09:17:13;;;;;;;17.45;10.38;;;1.80;99.90;;;;;;5054765;28;20389;-83
2024/01/04 09:19:40;;;;;;;15.77;7.68;;;1.80;99.90;;;;;;5024707;28;20089;-84
2024/01/04 09:22:07;;;;;;;13.27;7.35;;;1.90;99.90;;;;;;5069266;28;20047;-84
2024/01/04 09:24:33;;;;;;;14.70;6.20;;;1.90;99.90;;;;;;5077916;28;20028;-84
2024/01/04 09:27:00;;;;;;;28.08;11.82;;;1.90;99.90;;;;;;5092361;28;20017;-84
2024/01/04 09:29:25;;;;;;;29.15;12.77;;;2.00;99.90;;;;;;5044688;28;20032;-84
2024/01/04 09:31:51;;;;;;;17.58;9.30;;;2.00;99.90;;;;;;5075599;28;20078;-84
2024/01/04 09:34:17;;;;;;;13.23;5.95;;;2.10;99.90;;;;;;5049555;28;20028;-84
2024/01/04 09:36:42;;;;;;;15.07;7.25;;;2.10;99.90;;;;;;5076485;28;20077;-84
2024/01/04 09:39:08;;;;;;;12.38;6.70;;;2.20;99.90;;;;;;5057475;28;20036;-84
2024/01/04 09:41:36;;;;;;;12.25;5.90;;;2.30;99.90;;;;;;5041591;28;20028;-84
2024/01/04 09:44:04;;;;;;;10.95;5.80;;;2.30;99.90;;;;;;5069754;28;20051;-85
2024/01/04 09:46:35;;;;;;;9.77;5.25;;;2.40;99.90;;;;;;5059063;28;20504;-85
2024/01/04 09:49:02;;;;;;;11.73;6.28;;;2.40;99.90;;;;;;5060026;28;20036;-84
2024/01/04 09:51:29;;;;;;;11.73;5.78;;;2.50;99.90;;;;;;5075258;28;20033;-84
2024/01/04 09:53:58;;;;;;;13.20;6.80;;;2.50;99.90;;;;;;5059454;28;20017;-84
2024/01/04 09:56:26;;;;;;;13.10;7.68;;;2.50;99.90;;;;;;5062278;28;20024;-84
2024/01/04 09:58:53;;;;;;;16.70;8.88;;;2.60;99.90;;;;;;5055366;28;20142;-85
2024/01/04 10:01:39;;;;;;;11.88;7.03;;;2.60;99.90;;;;;;5061963;28;20032;-85
2024/01/04 10:04:13;;;;;;;13.30;8.02;;;2.70;99.90;;;;;;5062596;28;20031;-85
2024/01/04 10:06:53;;;;;;;21.15;10.88;;;2.70;99.90;;;;;;5074546;28;20031;-85
2024/01/04 10:09:35;;;;;;;18.65;9.63;;;2.80;99.90;;;;;;5091484;28;20020;-85
2024/01/04 10:12:08;;;;;;;23.92;12.77;;;2.80;99.90;;;;;;5069027;28;20286;-85
2024/01/04 10:14:35;;;;;;;13.98;7.63;;;2.80;99.90;;;;;;5064758;28;20396;-85
2024/01/04 10:17:02;;;;;;;11.32;6.15;;;2.90;99.90;;;;;;5072553;28;20073;-86
2024/01/04 10:19:29;;;;;;;14.63;6.30;;;3.00;99.90;;;;;;5050548;28;20028;-86
2024/01/04 10:22:01;;;;;;;12.35;6.65;;;3.20;99.90;;;;;;5057358;28;20554;-86
2024/01/04 10:24:28;;;;;;;11.20;5.65;;;3.30;99.90;;;;;;5074740;28;20047;-86
2024/01/04 10:26:57;;;;;;;9.93;4.68;;;3.40;99.90;;;;;;5071417;28;20024;-86
2024/01/04 10:29:23;;;;;;;8.93;5.28;;;3.40;99.90;;;;;;5059875;28;20491;-86
2024/01/04 10:32:08;;;;;;;11.68;5.03;;;3.50;99.90;;;;;;5092765;28;20028;-84
2024/01/04 10:34:34;;;;;;;7.30;3.85;;;3.60;99.90;;;;;;5047513;28;20028;-86
2024/01/04 10:37:15;;;;;;;6.25;3.40;;;3.70;99.90;;;;;;5050409;28;20032;-87
2024/01/04 10:39:45;;;;;;;5.05;2.40;;;3.70;99.90;;;;;;5068622;28;20063;-86
2024/01/04 10:42:13;;;;;;;9.45;4.45;;;3.80;99.90;;;;;;5077144;28;20036;-86
2024/01/04 10:44:39;;;;;;;13.23;6.05;;;3.90;99.90;;;;;;5076473;28;20028;-86
2024/01/04 10:47:08;;;;;;;24.60;9.55;;;4.00;99.90;;;;;;5059798;28;20062;-85
2024/01/04 10:49:40;;;;;;;14.55;7.45;;;4.00;99.90;;;;;;5059886;28;20024;-86
2024/01/04 10:52:10;;;;;;;8.05;4.03;;;4.10;99.90;;;;;;5083433;28;20153;-85
2024/01/04 10:54:37;;;;;;;10.20;4.70;;;4.20;99.90;;;;;;5058224;28;20369;-86
2024/01/04 10:57:03;;;;;;;8.85;4.13;;;4.20;99.90;;;;;;5053162;28;20032;-86
2024/01/04 10:59:32;;;;;;;5.95;3.63;;;4.30;99.90;;;;;;5048003;28;20028;-86
2024/01/04 11:01:58;;;;;;;6.18;3.78;;;4.40;99.90;;;;;;5056448;28;20500;-85
2024/01/04 11:04:25;;;;;;;11.45;5.15;;;4.40;99.90;;;;;;5071187;28;20419;-86
2024/01/04 11:06:52;;;;;;;7.47;4.30;;;4.50;99.90;;;;;;5076081;28;20077;-86
2024/01/04 11:09:20;;;;;;;8.68;4.35;;;4.70;99.90;;;;;;5093865;28;20016;-86
2024/01/04 11:11:51;;;;;;;5.22;2.35;;;4.80;99.90;;;;;;5093957;28;20024;-86
2024/01/04 11:14:18;;;;;;;20.25;8.75;;;5.00;99.90;;;;;;5075597;28;20085;-87
2024/01/04 11:17:08;;;;;;;10.77;4.97;;;5.10;99.90;;;;;;5075822;28;20032;-86
2024/01/04 11:19:40;;;;;;;10.43;5.10;;;5.30;99.90;;;;;;5093457;28;20024;-87
2024/01/04 11:22:39;;;;;;;5.13;2.40;;;5.40;99.90;;;;;;5086722;28;20103;-86
2024/01/04 11:25:31;;;;;;;4.93;1.80;;;5.50;99.90;;;;;;5070744;28;20035;-87
2024/01/04 11:27:58;;;;;;;3.38;1.60;;;5.60;99.90;;;;;;5059967;28;20499;-86
2024/01/04 11:30:24;;;;;;;3.65;1.88;;;5.60;99.90;;;;;;5046129;28;20040;-86
2024/01/04 11:32:50;;;;;;;6.03;2.78;;;5.60;99.90;;;;;;5071998;28;20025;-87
2024/01/04 11:35:16;;;;;;;4.20;2.30;;;5.70;99.90;;;;;;5072826;28;20016;-87
2024/01/04 11:37:49;;;;;;;2.33;1.60;;;5.80;99.90;;;;;;5074557;28;20020;-87
2024/01/04 11:40:26;;;;;;;3.05;1.50;;;5.90;99.90;;;;;;5065531;28;20110;-88
2024/01/04 11:42:52;;;;;;;1.23;0.70;;;6.00;99.90;;;;;;5089923;28;20029;-88
2024/01/04 11:45:18;;;;;;;1.02;0.65;;;6.10;99.90;;;;;;5075915;28;20066;-88
2024/01/04 11:47:49;;;;;;;1.42;0.50;;;6.10;99.90;;;;;;5086766;28;20112;-88
2024/01/04 11:50:23;;;;;;;1.07;0.50;;;6.20;99.90;;;;;;5059007;28;20020;-88
2024/01/04 11:53:04;;;;;;;1.23;0.50;;;6.20;99.90;;;;;;5089437;28;20362;-88
2024/01/04 11:55:30;;;;;;;0.75;0.40;;;6.20;99.90;;;;;;5092796;28;20028;-88
2024/01/04 11:58:14;;;;;;;2.10;0.50;;;6.20;99.90;;;;;;5047459;28;20399;-88
2024/01/04 12:00:51;;;;;;;2.38;1.40;;;6.30;99.90;;;;;;5089882;28;20431;-88
2024/01/04 12:03:20;;;;;;;13.82;7.05;;;6.30;99.90;;;;;;5097116;28;20486;-88
2024/01/04 12:05:51;;;;;;;7.20;3.45;;;6.40;99.90;;;;;;5097887;28;20456;-88
2024/01/04 12:08:24;;;;;;;3.75;1.90;;;6.50;99.90;;;;;;5078657;28;20058;-88
2024/01/04 12:10:53;;;;;;;0.75;0.45;;;6.60;99.90;;;;;;5097266;28;20104;-89
2024/01/04 12:13:19;;;;;;;2.67;1.45;;;6.60;99.90;;;;;;5086118;28;20081;-89
2024/01/04 12:15:45;;;;;;;3.42;2.80;;;6.60;99.90;;;;;;5086251;28;20037;-89
2024/01/04 12:18:12;;;;;;;2.13;1.00;;;6.70;99.90;;;;;;5073121;28;20040;-88
2024/01/04 12:20:38;;;;;;;1.10;0.50;;;6.70;99.90;;;;;;5089089;28;20477;-89
2024/01/04 12:23:06;;;;;;;3.08;0.60;;;6.80;99.90;;;;;;5077761;28;20050;-88
2024/01/04 12:25:39;;;;;;;1.50;0.60;;;6.80;99.90;;;;;;5070255;28;20017;-88
2024/01/04 12:28:09;;;;;;;1.10;0.40;;;6.80;99.90;;;;;;5068448;28;20030;-88
2024/01/04 12:30:38;;;;;;;0.77;0.40;;;6.80;99.90;;;;;;5077940;28;20388;-88
2024/01/04 12:33:06;;;;;;;1.27;0.32;;;6.80;99.90;;;;;;5075210;28;20024;-88
2024/01/04 12:35:32;;;;;;;1.95;0.40;;;6.80;99.90;;;;;;5079942;28;20111;-88
2024/01/04 12:38:02;;;;;;;1.15;0.40;;;6.80;99.90;;;;;;5075824;28;20052;-88
2024/01/04 12:40:36;;;;;;;1.75;0.52;;;6.70;99.90;;;;;;5067977;28;20024;-88
2024/01/04 12:43:03;;;;;;;0.90;0.50;;;6.80;99.90;;;;;;5078214;28;20060;-87
2024/01/04 12:45:29;;;;;;;1.05;0.45;;;6.70;99.90;;;;;;5065419;28;20479;-88
2024/01/04 12:48:02;;;;;;;1.60;0.50;;;6.70;99.90;;;;;;5044799;28;20085;-88
2024/01/04 12:50:31;;;;;;;9.40;3.60;;;6.60;99.90;;;;;;5058200;28;20064;-88